Time;durP1;ratioP1;P1;durP2;ratioP2;P2;SDS_P1;SDS_P2;PMS_P1;PMS_P2;Temp;Humidity;BMP_temperature;BMP_pressure;BME280_temperature;BME280_humidity;BME280_pressure;Samples;Min_cycle;Max_cycle;Signal;HPM_P1;HPM_P2
2022/09/08 00:01:33;;;;;;;0.00;0.00;;;;;;;18.39;73.52;99585.22;7351761;19;20013;-63
2022/09/08 00:04:01;;;;;;;0.00;0.00;;;;;;;18.40;73.55;99583.44;7359569;19;20570;-63
2022/09/08 00:06:26;;;;;;;0.00;0.00;;;;;;;18.40;72.63;99579.00;7358680;19;20033;-63
2022/09/08 00:08:55;;;;;;;0.00;0.00;;;;;;;18.41;73.38;99579.84;7361812;19;20010;-63
2022/09/08 00:11:23;;;;;;;0.00;0.00;;;;;;;18.44;72.97;99584.03;7360683;19;20380;-63
2022/09/08 00:13:50;;;;;;;0.00;0.00;;;;;;;18.44;73.42;99586.69;7360254;19;20345;-63
2022/09/08 00:16:18;;;;;;;0.00;0.00;;;;;;;18.42;72.98;99582.38;7358425;19;20015;-63
2022/09/08 00:18:44;;;;;;;0.00;0.00;;;;;;;18.46;72.64;99576.88;7360622;19;20017;-64
2022/09/08 00:21:09;;;;;;;0.08;0.08;;;;;;;18.46;73.11;99571.56;7360747;19;20014;-63
2022/09/08 00:23:35;;;;;;;0.00;0.00;;;;;;;18.47;72.89;99568.81;7358323;19;20671;-63
2022/09/08 00:26:01;;;;;;;0.00;0.00;;;;;;;18.48;72.99;99570.50;7359810;19;21359;-63
2022/09/08 00:28:27;;;;;;;0.00;0.00;;;;;;;18.48;71.98;99567.00;7359521;19;20010;-63
2022/09/08 00:30:54;;;;;;;0.00;0.00;;;;;;;18.50;72.58;99562.44;7357452;19;20121;-63
2022/09/08 00:33:20;;;;;;;0.00;0.00;;;;;;;18.50;71.83;99567.72;7360353;19;20868;-63
2022/09/08 00:35:51;;;;;;;0.10;0.10;;;;;;;18.51;72.41;99564.16;7357213;19;20408;-63
2022/09/08 00:38:19;;;;;;;0.00;0.00;;;;;;;18.51;72.41;99569.44;7360711;19;20602;-63
2022/09/08 00:40:46;;;;;;;0.00;0.00;;;;;;;18.51;72.81;99566.78;7358366;19;20033;-63
2022/09/08 00:43:30;;;;;;;0.00;0.00;;;;;;;18.55;72.54;99570.88;7360334;19;20136;-63
2022/09/08 00:45:58;;;;;;;0.00;0.00;;;;;;;18.47;72.12;99562.69;7358194;19;20014;-63
2022/09/08 00:48:24;;;;;;;0.00;0.00;;;;;;;18.51;71.43;99566.78;7360985;19;20035;-63
2022/09/08 00:50:51;;;;;;;0.00;0.00;;;;;;;18.52;72.08;99563.19;7358157;19;20020;-63
2022/09/08 00:53:19;;;;;;;0.00;0.00;;;;;;;18.54;71.44;99564.75;7358613;19;20018;-63
2022/09/08 00:55:45;;;;;;;0.00;0.00;;;;;;;18.52;71.74;99565.84;7354140;19;20034;-63
2022/09/08 00:58:12;;;;;;;0.00;0.00;;;;;;;18.53;71.25;99573.66;7360098;19;20065;-63
2022/09/08 01:00:40;;;;;;;0.00;0.00;;;;;;;18.56;71.84;99567.31;7357453;19;20018;-63
2022/09/08 01:03:08;;;;;;;0.00;0.00;;;;;;;18.46;71.77;99545.97;7359984;19;20014;-63
2022/09/08 01:05:43;;;;;;;0.00;0.00;;;;;;;18.59;72.22;99567.06;7357330;19;20096;-63
2022/09/08 01:14:00;;;;;;;0.08;0.08;;;;;;;18.61;72.35;99559.88;7255400;19;2004420;-63
2022/09/08 01:16:26;;;;;;;0.00;0.00;;;;;;;18.58;71.28;99560.09;7358783;19;20459;-63
2022/09/08 01:18:52;;;;;;;0.00;0.00;;;;;;;18.59;70.98;99562.59;7359836;19;20474;-63
2022/09/08 01:21:39;;;;;;;0.00;0.00;;;;;;;18.62;71.92;99556.25;7358139;19;20003;-63
2022/09/08 01:24:17;;;;;;;0.10;0.10;;;;;;;18.61;71.14;99560.72;7355115;19;20021;-63
2022/09/08 01:27:00;;;;;;;0.00;0.00;;;;;;;18.61;71.52;99549.28;7360026;19;20021;-63
2022/09/08 01:29:25;;;;;;;0.00;0.00;;;;;;;18.63;70.49;99564.06;7358329;19;20007;-62
2022/09/08 01:31:53;;;;;;;0.00;0.00;;;;;;;18.65;71.60;99553.38;7357368;19;20017;-63
2022/09/08 01:34:18;;;;;;;;;;;;;;;18.70;71.28;99551.25;7354291;19;20952;-63
2022/09/08 01:36:43;;;;;;;0.00;0.00;;;;;;;18.61;71.66;99559.88;7359864;19;19915;-63
2022/09/08 01:39:09;;;;;;;0.05;0.05;;;;;;;18.59;71.47;99561.78;7356557;19;20032;-63
2022/09/08 01:41:34;;;;;;;0.00;0.00;;;;;;;18.54;71.35;99553.34;7358568;19;20489;-63
2022/09/08 01:44:00;;;;;;;0.00;0.00;;;;;;;18.53;71.75;99562.22;7356988;19;20002;-63
2022/09/08 01:46:26;;;;;;;0.00;0.00;;;;;;;18.20;71.52;99502.09;7358809;19;20018;-63
2022/09/08 01:48:51;;;;;;;0.10;0.10;;;;;;;18.47;71.72;99552.13;7359080;19;20094;-63
2022/09/08 01:51:17;;;;;;;0.00;0.00;;;;;;;18.46;71.91;99547.78;7360952;19;20376;-63
2022/09/08 01:53:42;;;;;;;0.00;0.00;;;;;;;18.44;70.77;99547.03;7358378;19;20014;-63
2022/09/08 01:56:08;;;;;;;0.00;0.00;;;;;;;18.39;71.27;99540.28;7359596;19;20374;-63
2022/09/08 01:58:33;;;;;;;0.00;0.00;;;;;;;18.36;71.13;99535.25;7352411;19;20106;-63
2022/09/08 02:00:59;;;;;;;0.00;0.00;;;;;;;18.37;71.70;99536.91;7359101;19;20010;-63
2022/09/08 02:03:25;;;;;;;0.00;0.00;;;;;;;18.34;70.82;99541.59;7355009;19;20086;-63
2022/09/08 02:05:51;;;;;;;0.00;0.00;;;;;;;18.38;71.62;99554.47;7360122;19;20574;-63
2022/09/08 02:08:16;;;;;;;0.00;0.00;;;;;;;18.37;72.03;99552.78;7357103;19;20062;-63
2022/09/08 02:10:41;;;;;;;0.00;0.00;;;;;;;18.34;71.90;99547.72;7358261;19;20838;-63
2022/09/08 02:13:07;;;;;;;0.00;0.00;;;;;;;18.30;72.41;99543.63;7357421;19;20027;-63
2022/09/08 02:15:33;;;;;;;0.00;0.00;;;;;;;18.28;73.01;99548.16;7355993;19;20021;-63
2022/09/08 02:17:58;;;;;;;0.00;0.00;;;;;;;18.26;73.32;99539.50;7357860;19;20030;-63
2022/09/08 02:20:24;;;;;;;0.00;0.00;;;;;;;18.24;72.77;99545.84;7357747;19;20138;-63
2022/09/08 02:22:52;;;;;;;0.00;0.00;;;;;;;18.24;73.58;99554.63;7358621;19;20650;-63
2022/09/08 02:25:17;;;;;;;0.05;0.05;;;;;;;18.24;73.03;99540.56;7362020;19;20010;-63
2022/09/08 02:27:43;;;;;;;0.00;0.00;;;;;;;18.23;72.75;99533.59;7366654;19;20033;-63
2022/09/08 02:30:09;;;;;;;0.00;0.00;;;;;;;18.13;72.38;99528.13;7360142;19;20022;-63
2022/09/08 02:32:35;;;;;;;0.05;0.05;;;;;;;18.22;72.04;99531.91;7361215;19;20018;-63
2022/09/08 02:35:00;;;;;;;0.00;0.00;;;;;;;18.20;73.18;99524.13;7363104;19;20777;-63
2022/09/08 02:37:26;;;;;;;0.00;0.00;;;;;;;18.20;72.99;99529.41;7362638;19;20010;-63
2022/09/08 02:39:51;;;;;;;0.00;0.00;;;;;;;18.21;72.14;99524.94;7362526;19;20028;-63
2022/09/08 02:42:17;;;;;;;0.00;0.00;;;;;;;18.20;72.61;99526.75;7365794;19;20017;-63
2022/09/08 02:44:42;;;;;;;0.00;0.00;;;;;;;18.19;72.07;99525.03;7368075;19;21026;-63
2022/09/08 02:47:08;;;;;;;0.00;0.00;;;;;;;18.19;72.27;99525.03;7364452;19;20010;-63
2022/09/08 02:49:34;;;;;;;0.00;0.00;;;;;;;18.17;71.85;99529.59;7364099;19;20006;-63
2022/09/08 02:51:59;;;;;;;0.03;0.03;;;;;;;18.14;71.90;99519.25;7365162;19;20013;-63
2022/09/08 02:54:25;;;;;;;0.00;0.00;;;;;;;18.16;71.95;99527.94;7365912;19;20044;-63
2022/09/08 02:56:51;;;;;;;0.00;0.00;;;;;;;18.17;72.06;99529.59;7352461;19;20046;-63
2022/09/08 02:59:16;;;;;;;0.00;0.00;;;;;;;18.16;71.74;99533.22;7360280;19;20011;-64
2022/09/08 03:01:43;;;;;;;0.00;0.00;;;;;;;18.12;72.64;99531.75;7361969;19;20010;-63
2022/09/08 03:04:12;;;;;;;0.00;0.00;;;;;;;18.18;71.96;99541.03;7355544;19;20010;-63
2022/09/08 03:06:38;;;;;;;0.00;0.00;;;;;;;18.17;71.34;99540.19;7365460;19;20022;-63
2022/09/08 03:09:05;;;;;;;0.00;0.00;;;;;;;18.18;71.60;99541.84;7364414;19;20026;-64
2022/09/08 03:11:31;;;;;;;;;;;;;;;18.24;71.96;99533.47;7364239;19;20110;-63
2022/09/08 03:13:57;;;;;;;0.00;0.00;;;;;;;18.17;71.88;99529.59;7357255;19;19998;-63
2022/09/08 03:16:23;;;;;;;0.00;0.00;;;;;;;18.18;72.11;99531.28;7364302;19;20102;-63
2022/09/08 03:18:48;;;;;;;0.00;0.00;;;;;;;18.17;70.68;99524.31;7356358;19;20085;-63
2022/09/08 03:21:14;;;;;;;0.00;0.00;;;;;;;18.17;71.84;99529.59;7359530;19;20506;-63
2022/09/08 03:23:40;;;;;;;0.00;0.00;;;;;;;18.15;72.51;99534.19;7364466;19;20045;-63
2022/09/08 03:26:12;;;;;;;0.00;0.00;;;;;;;18.17;72.64;99529.59;7358859;19;20794;-63
2022/09/08 03:28:38;;;;;;;0.00;0.00;;;;;;;18.16;72.17;99538.50;7360733;19;20010;-63
2022/09/08 03:31:07;;;;;;;0.10;0.10;;;;;;;18.19;71.76;99538.25;7363896;19;20014;-63
2022/09/08 03:33:33;;;;;;;0.00;0.00;;;;;;;18.17;72.03;99534.91;7360254;19;20361;-63
2022/09/08 03:36:04;;;;;;;0.00;0.00;;;;;;;18.20;71.95;99542.59;7361507;19;20078;-63
2022/09/08 03:38:30;;;;;;;0.00;0.00;;;;;;;18.19;72.21;99542.69;7364142;19;20011;-63
2022/09/08 03:40:56;;;;;;;0.00;0.00;;;;;;;18.19;72.33;99540.91;7357873;19;20613;-63
2022/09/08 03:43:22;;;;;;;0.00;0.00;;;;;;;18.20;71.91;99539.97;7363691;19;20017;-63
2022/09/08 03:45:48;;;;;;;0.00;0.00;;;;;;;18.21;72.59;99540.81;7362348;19;21956;-63
2022/09/08 03:48:15;;;;;;;0.00;0.00;;;;;;;18.20;72.56;99541.75;7363195;19;20014;-63
2022/09/08 03:50:41;;;;;;;0.00;0.00;;;;;;;18.21;73.00;99541.66;7340664;19;20018;-63
2022/09/08 03:53:07;;;;;;;0.00;0.00;;;;;;;18.20;73.15;99529.41;7359903;19;20019;-63
2022/09/08 03:55:33;;;;;;;0.00;0.00;;;;;;;18.23;72.96;99536.25;7359776;19;21618;-63
2022/09/08 03:57:59;;;;;;;0.00;0.00;;;;;;;18.24;72.86;99536.13;7355590;19;20010;-63
2022/09/08 04:00:25;;;;;;;0.00;0.00;;;;;;;18.24;72.41;99533.47;7360926;19;20030;-63
2022/09/08 04:02:50;;;;;;;0.00;0.00;;;;;;;18.26;72.30;99531.59;7364414;19;20626;-63
2022/09/08 04:05:16;;;;;;;0.00;0.00;;;;;;;18.27;72.38;99535.06;7357537;19;20711;-63
2022/09/08 04:07:41;;;;;;;0.00;0.00;;;;;;;18.21;72.05;99525.78;7361421;19;20014;-63
2022/09/08 04:10:12;;;;;;;0.00;0.00;;;;;;;18.31;72.62;99537.38;7359090;19;20117;-63
2022/09/08 04:12:38;;;;;;;0.00;0.00;;;;;;;18.29;73.03;99534.00;7363451;19;20011;-63
2022/09/08 04:15:05;;;;;;;0.08;0.08;;;;;;;18.32;72.33;99539.06;7359937;19;20022;-63
2022/09/08 04:17:31;;;;;;;0.10;0.10;;;;;;;18.31;72.15;99532.09;7364469;19;20022;-63
2022/09/08 04:19:56;;;;;;;0.00;0.00;;;;;;;18.32;72.72;99533.78;7364368;19;21347;-63
2022/09/08 04:22:23;;;;;;;0.00;0.00;;;;;;;18.33;72.31;99540.75;7360267;19;20082;-63
2022/09/08 04:24:49;;;;;;;0.05;0.05;;;;;;;18.31;72.80;99534.75;7360716;19;20023;-63
2022/09/08 04:27:16;;;;;;;0.10;0.10;;;;;;;18.34;72.40;99545.06;7359938;19;20011;-63
2022/09/08 04:29:42;;;;;;;0.00;0.00;;;;;;;18.34;72.85;99545.06;7359884;19;20683;-63
2022/09/08 04:32:07;;;;;;;0.00;0.00;;;;;;;18.34;72.48;99541.59;7359543;19;20039;-64
2022/09/08 04:34:34;;;;;;;0.00;0.00;;;;;;;18.33;72.58;99535.44;7359689;19;20018;-63
2022/09/08 04:36:59;;;;;;;0.00;0.00;;;;;;;18.33;72.65;99540.75;7362392;19;20041;-63
2022/09/08 04:39:25;;;;;;;0.00;0.00;;;;;;;18.33;72.90;99540.75;7359066;19;20383;-63
2022/09/08 04:41:50;;;;;;;0.00;0.00;;;;;;;18.33;72.66;99546.03;7362279;19;20018;-64
2022/09/08 04:44:16;;;;;;;0.00;0.00;;;;;;;18.32;72.70;99544.34;7357366;19;20014;-63
2022/09/08 04:46:41;;;;;;;0.00;0.00;;;;;;;18.32;72.62;99541.69;7358604;19;20025;-63
2022/09/08 04:49:06;;;;;;;0.00;0.00;;;;;;;18.33;72.70;99539.91;7361012;19;20015;-63
2022/09/08 04:51:33;;;;;;;0.00;0.00;;;;;;;18.32;72.30;99538.22;7357051;19;20010;-63
2022/09/08 04:54:00;;;;;;;0.00;0.00;;;;;;;18.33;72.62;99548.66;7360781;19;20018;-63
2022/09/08 04:56:26;;;;;;;0.00;0.00;;;;;;;18.31;72.60;99547.94;7357699;19;20019;-63
2022/09/08 04:58:53;;;;;;;0.10;0.10;;;;;;;18.31;73.18;99550.59;7362424;19;20600;-64
2022/09/08 05:01:24;;;;;;;0.10;0.10;;;;;;;18.27;72.08;99537.72;7360032;19;21292;-63
2022/09/08 05:03:51;;;;;;;0.10;0.10;;;;;;;18.08;73.08;99509.97;7360354;19;20642;-63
2022/09/08 05:06:17;;;;;;;0.05;0.05;;;;;;;18.29;72.66;99547.19;7358559;19;20061;-63
2022/09/08 05:08:48;;;;;;;0.00;0.00;;;;;;;18.33;72.62;99545.19;7355832;19;20022;-63
2022/09/08 05:11:14;;;;;;;0.00;0.00;;;;;;;18.29;73.34;99549.00;7361749;19;20580;-63
2022/09/08 05:13:40;;;;;;;0.10;0.10;;;;;;;18.27;73.37;99551.75;7357655;19;20034;-63
2022/09/08 05:16:07;;;;;;;0.00;0.00;;;;;;;18.30;72.54;99550.72;7362086;19;20035;-63
2022/09/08 05:18:33;;;;;;;0.00;0.00;;;;;;;18.30;73.07;99550.72;7355928;19;20049;-63
2022/09/08 05:20:58;;;;;;;0.00;0.00;;;;;;;18.31;72.23;99550.59;7361716;19;20014;-63
2022/09/08 05:23:24;;;;;;;0.00;0.00;;;;;;;18.30;72.17;99545.44;7357042;19;20051;-64
2022/09/08 05:26:01;;;;;;;0.03;0.03;;;;;;;18.32;72.65;99549.63;7358968;19;20072;-63
2022/09/08 05:28:30;;;;;;;0.00;0.00;;;;;;;18.29;72.54;99557.78;7359381;19;20019;-64
2022/09/08 05:30:56;;;;;;;0.00;0.00;;;;;;;18.28;73.20;99553.44;7356421;19;20689;-63
2022/09/08 05:33:23;;;;;;;0.00;0.00;;;;;;;18.28;72.76;99556.09;7361899;19;20105;-63
2022/09/08 05:35:49;;;;;;;0.00;0.00;;;;;;;18.27;72.55;99543.00;7355001;19;20018;-64
2022/09/08 05:38:15;;;;;;;0.00;0.00;;;;;;;18.27;72.71;99551.75;7358975;19;20093;-63
2022/09/08 05:40:41;;;;;;;0.00;0.00;;;;;;;18.27;73.46;99551.75;7358602;19;20102;-63
2022/09/08 05:43:06;;;;;;;0.00;0.00;;;;;;;18.28;73.39;99553.44;7358597;19;21789;-64
2022/09/08 05:45:32;;;;;;;0.00;0.00;;;;;;;18.28;73.72;99557.91;7357814;19;20009;-63
2022/09/08 05:47:57;;;;;;;0.00;0.00;;;;;;;18.28;73.66;99566.66;7359028;19;20026;-63
2022/09/08 05:50:23;;;;;;;0.10;0.10;;;;;;;18.29;73.52;99563.06;7358168;19;20010;-63
2022/09/08 05:52:48;;;;;;;0.00;0.00;;;;;;;18.29;73.46;99563.06;7358246;19;20014;-64
2022/09/08 05:55:14;;;;;;;0.00;0.00;;;;;;;18.30;73.00;99566.56;7357854;19;20030;-63
2022/09/08 05:57:39;;;;;;;0.00;0.00;;;;;;;18.27;73.09;99561.50;7355212;19;20018;-64
2022/09/08 06:00:07;;;;;;;0.00;0.00;;;;;;;18.26;73.24;99560.66;7366447;19;20015;-63
2022/09/08 06:02:33;;;;;;;0.00;0.00;;;;;;;18.29;73.74;99570.16;7366255;19;20368;-63
2022/09/08 06:04:58;;;;;;;0.00;0.00;;;;;;;18.22;72.01;99568.91;7365860;19;20011;-64
2022/09/08 06:07:24;;;;;;;0.00;0.00;;;;;;;18.26;73.53;99571.22;7368307;19;20010;-64
2022/09/08 06:09:49;;;;;;;0.00;0.00;;;;;;;18.26;73.63;99575.66;7364885;19;20019;-64
2022/09/08 06:12:15;;;;;;;0.00;0.00;;;;;;;18.25;73.70;99568.66;7368304;19;20034;-63
2022/09/08 06:14:40;;;;;;;0.00;0.00;;;;;;;18.24;73.92;99575.75;7362867;19;20062;-64
2022/09/08 06:17:06;;;;;;;0.08;0.08;;;;;;;18.23;73.52;99576.72;7369685;19;20018;-64
2022/09/08 06:19:32;;;;;;;0.10;0.10;;;;;;;18.22;73.29;99572.41;7365436;19;20006;-63
2022/09/08 06:21:57;;;;;;;0.00;0.00;;;;;;;18.21;73.73;99578.66;7367292;19;20018;-63
2022/09/08 06:24:23;;;;;;;0.00;0.00;;;;;;;18.19;73.69;99580.53;7365061;19;20014;-64
2022/09/08 06:27:22;;;;;;;0.00;0.00;;;;;;;18.23;73.37;99586.44;7368866;19;20011;-64
2022/09/08 06:29:50;;;;;;;0.00;0.00;;;;;;;18.18;74.09;99581.50;7262599;19;2004997;-63
2022/09/08 06:32:39;;;;;;;0.10;0.10;;;;;;;18.19;74.10;99588.47;7365202;19;20045;-63
2022/09/08 06:35:14;;;;;;;0.00;0.00;;;;;;;18.17;74.54;99582.44;7365016;19;20006;-63
2022/09/08 06:37:54;;;;;;;0.00;0.00;;;;;;;18.20;74.03;99586.66;7358917;19;20010;-63
2022/09/08 06:40:28;;;;;;;0.08;0.08;;;;;;;18.15;74.64;99589.66;7361304;19;20006;-64
2022/09/08 06:43:01;;;;;;;0.00;0.00;;;;;;;18.15;74.47;99584.38;7346615;19;20919;-63
2022/09/08 06:45:47;;;;;;;0.00;0.00;;;;;;;18.22;73.90;99590.91;7364483;19;20019;-64
2022/09/08 06:48:22;;;;;;;0.00;0.00;;;;;;;18.18;74.23;99592.06;7364695;19;20023;-63
2022/09/08 06:51:05;;;;;;;0.00;0.00;;;;;;;18.23;73.57;99592.56;7362706;19;20027;-63
2022/09/08 06:53:41;;;;;;;0.00;0.00;;;;;;;18.25;74.27;99598.63;7345983;19;20023;-64
2022/09/08 06:56:30;;;;;;;0.00;0.00;;;;;;;18.29;73.78;99597.41;7354915;19;20010;-63
2022/09/08 06:59:21;;;;;;;0.00;0.00;;;;;;;18.32;73.48;99597.22;7362853;19;20006;-63
2022/09/08 07:02:08;;;;;;;0.00;0.00;;;;;;;18.34;74.04;99603.22;7262866;19;2004468;-63
2022/09/08 07:05:03;;;;;;;0.10;0.10;;;;;;;18.38;74.08;99602.03;7364189;19;20530;-63
2022/09/08 07:07:52;;;;;;;0.00;0.00;;;;;;;18.37;74.05;99605.66;7262895;19;2004440;-63
2022/09/08 07:10:26;;;;;;;0.00;0.00;;;;;;;18.40;73.88;99599.31;7261229;19;2004297;-64
2022/09/08 07:12:58;;;;;;;0.00;0.00;;;;;;;18.41;74.12;99608.91;7366551;19;20018;-64
2022/09/08 07:15:41;;;;;;;0.00;0.00;;;;;;;18.46;73.96;99609.44;7358725;19;20021;-63
2022/09/08 07:18:16;;;;;;;0.00;0.00;;;;;;;18.46;74.41;99611.22;7364300;19;20019;-64
2022/09/08 07:20:42;;;;;;;0.00;0.00;;;;;;;18.40;74.39;99600.16;7352092;19;20027;-61
2022/09/08 07:23:19;;;;;;;0.10;0.10;;;;;;;18.54;73.91;99611.50;7363789;19;20502;-61
2022/09/08 07:25:49;;;;;;;0.00;0.00;;;;;;;18.58;74.38;99612.97;7362326;19;20043;-61
2022/09/08 07:28:31;;;;;;;0.00;0.00;;;;;;;18.61;74.49;99620.69;7361669;19;20007;-60
2022/09/08 07:31:00;;;;;;;0.00;0.00;;;;;;;18.62;74.21;99617.09;7362164;19;20040;-61
2022/09/08 07:33:37;;;;;;;0.00;0.00;;;;;;;18.67;74.25;99607.00;7357516;19;20010;-61
2022/09/08 07:36:10;;;;;;;0.00;0.00;;;;;;;18.65;74.32;99616.84;7360746;19;20007;-61
2022/09/08 07:38:47;;;;;;;0.00;0.00;;;;;;;18.74;73.63;99623.28;7361601;19;20022;-61
2022/09/08 07:41:19;;;;;;;0.10;0.10;;;;;;;18.71;73.02;99618.25;7363755;19;20018;-63
2022/09/08 07:43:47;;;;;;;0.00;0.00;;;;;;;18.74;73.79;99621.50;7361933;19;20011;-63
2022/09/08 07:46:35;;;;;;;0.10;0.10;;;;;;;18.81;73.70;99621.91;7360730;19;20028;-63
2022/09/08 07:49:41;;;;;;;0.00;0.00;;;;;;;18.83;73.53;99623.47;7364736;19;20018;-63
2022/09/08 07:52:19;;;;;;;0.00;0.00;;;;;;;18.83;73.21;99615.53;7257540;19;2004497;-63
2022/09/08 07:55:03;;;;;;;0.00;0.00;;;;;;;18.88;73.56;99620.47;7361687;19;20014;-63
2022/09/08 07:57:44;;;;;;;0.10;0.10;;;;;;;18.90;73.48;99618.56;7364248;19;20048;-61
2022/09/08 08:00:17;;;;;;;0.10;0.10;;;;;;;18.93;73.86;99621.81;7364858;19;20022;-61
2022/09/08 08:03:16;;;;;;;0.00;0.00;;;;;;;19.00;73.62;99629.28;7368747;19;20479;-61
2022/09/08 08:05:48;;;;;;;0.00;0.00;;;;;;;19.02;73.12;99627.41;7264374;19;2004388;-61
2022/09/08 08:08:33;;;;;;;0.00;0.00;;;;;;;19.05;73.18;99621.84;7362188;19;20014;-61
2022/09/08 08:11:19;;;;;;;0.00;0.00;;;;;;;19.10;72.88;99630.28;7365466;19;20030;-61
2022/09/08 08:13:56;;;;;;;0.00;0.00;;;;;;;19.09;73.18;99632.09;7367370;19;20018;-61
2022/09/08 08:16:40;;;;;;;;;;;;;;;19.15;72.90;99639.56;7366113;19;20084;-61
2022/09/08 08:19:27;;;;;;;0.00;0.00;;;;;;;19.13;72.87;99632.72;7366168;19;19922;-62
2022/09/08 08:22:02;;;;;;;0.00;0.00;;;;;;;19.15;72.90;99639.56;7366229;19;20513;-61
2022/09/08 08:24:55;;;;;;;0.00;0.00;;;;;;;19.16;72.67;99645.72;7364652;19;20446;-61
2022/09/08 08:27:43;;;;;;;0.08;0.08;;;;;;;19.17;72.66;99648.25;7264447;19;2004279;-60
2022/09/08 08:30:11;;;;;;;0.00;0.00;;;;;;;19.13;72.52;99646.78;7364981;19;20465;-63
2022/09/08 08:32:42;;;;;;;0.00;0.00;;;;;;;19.18;72.62;99649.09;7364551;19;20010;-63
2022/09/08 08:35:38;;;;;;;0.00;0.00;;;;;;;19.22;72.58;99655.84;7364501;19;20438;-63
2022/09/08 08:38:05;;;;;;;0.10;0.10;;;;;;;19.14;72.71;99647.63;7263862;19;2004411;-63
2022/09/08 08:40:37;;;;;;;0.00;0.00;;;;;;;19.26;72.93;99646.72;7365376;19;20039;-63
2022/09/08 08:43:11;;;;;;;0.00;0.00;;;;;;;19.24;72.70;99643.34;7364489;19;20019;-63
2022/09/08 08:45:49;;;;;;;0.00;0.00;;;;;;;19.35;73.26;99650.47;7363388;19;20495;-63
2022/09/08 08:48:17;;;;;;;0.10;0.10;;;;;;;19.38;73.18;99655.53;7365084;19;20458;-63
2022/09/08 08:51:02;;;;;;;0.00;0.00;;;;;;;19.49;73.07;99652.91;7361670;19;20009;-63
2022/09/08 08:53:52;;;;;;;0.10;0.10;;;;;;;19.56;72.82;99658.56;7364702;19;20003;-64
2022/09/08 08:57:13;;;;;;;0.00;0.00;;;;;;;19.72;72.60;99648.53;7363545;19;20017;-63
2022/09/08 09:00:03;;;;;;;0.00;0.00;;;;;;;19.83;72.64;99656.50;7158170;19;2005505;-63
2022/09/08 09:02:47;;;;;;;0.00;0.00;;;;;;;19.86;72.67;99658.88;7363849;19;20007;-63
2022/09/08 09:05:21;;;;;;;0.00;0.00;;;;;;;20.03;72.61;99656.75;7362920;19;20013;-64
2022/09/08 09:08:05;;;;;;;0.10;0.10;;;;;;;20.07;71.95;99660.81;7362807;19;20011;-63
2022/09/08 09:10:49;;;;;;;0.00;0.00;;;;;;;20.24;71.78;99665.66;7362680;19;20061;-63
2022/09/08 09:13:34;;;;;;;0.10;0.10;;;;;;;20.23;71.58;99649.88;7363521;19;20006;-63
2022/09/08 09:16:17;;;;;;;0.10;0.10;;;;;;;20.41;70.71;99665.13;7363813;19;20006;-63
2022/09/08 09:19:10;;;;;;;0.00;0.00;;;;;;;20.51;71.02;99672.38;7364686;19;20430;-63
2022/09/08 09:22:10;;;;;;;0.00;0.00;;;;;;;20.59;70.43;99675.28;7261325;19;2004574;-63
2022/09/08 09:24:56;;;;;;;0.00;0.00;;;;;;;20.64;70.14;99678.41;7256085;19;2004221;-63
2022/09/08 09:27:42;;;;;;;0.00;0.00;;;;;;;20.75;70.72;99675.72;7364647;19;20037;-63
2022/09/08 09:30:21;;;;;;;0.10;0.10;;;;;;;20.79;69.69;99682.47;7363036;19;20014;-64
2022/09/08 09:33:06;;;;;;;0.00;0.00;;;;;;;20.80;68.87;99678.00;7365629;19;22234;-64
2022/09/08 09:35:56;;;;;;;0.00;0.00;;;;;;;20.94;69.21;99681.22;7375146;19;20006;-61
2022/09/08 09:38:46;;;;;;;0.00;0.00;;;;;;;21.03;70.13;99689.38;7375682;19;20013;-61
2022/09/08 09:41:23;;;;;;;0.08;0.08;;;;;;;20.99;69.22;99684.34;7375041;19;20073;-61
2022/09/08 09:43:57;;;;;;;;;;;;;;;21.14;70.25;99686.69;7377786;19;20014;-61
2022/09/08 09:47:04;;;;;;;0.00;0.00;;;;;;;21.14;68.84;99686.69;7375111;19;19946;-61
2022/09/08 09:49:41;;;;;;;;;;;;;;;21.20;69.58;99687.03;7266431;19;2004315;-61
2022/09/08 09:52:31;;;;;;;0.00;0.00;;;;;;;21.19;68.83;99690.66;7375052;19;20615;-61
2022/09/08 09:55:32;;;;;;;0.00;0.00;;;;;;;21.27;69.66;99691.81;7368586;19;20022;-61
2022/09/08 09:58:31;;;;;;;0.00;0.00;;;;;;;21.27;68.57;99697.97;7270815;19;2004421;-60
2022/09/08 10:01:17;;;;;;;0.00;0.00;;;;;;;21.28;67.59;99704.13;7274502;19;2004537;-61
2022/09/08 10:03:57;;;;;;;0.03;0.03;;;;;;;21.32;67.68;99706.44;7376658;19;21272;-61
2022/09/08 10:06:25;;;;;;;0.00;0.00;;;;;;;21.35;67.82;99706.19;7372456;19;20032;-61
2022/09/08 10:09:09;;;;;;;0.00;0.00;;;;;;;21.44;68.52;99704.53;7374809;19;20018;-61
2022/09/08 10:11:58;;;;;;;0.00;0.00;;;;;;;21.48;68.24;99704.16;7375716;19;20765;-61
2022/09/08 10:14:55;;;;;;;0.10;0.10;;;;;;;21.52;68.56;99711.88;7372519;19;20050;-61
2022/09/08 10:17:42;;;;;;;0.05;0.05;;;;;;;21.49;66.68;99711.19;7274864;19;2004686;-61
2022/09/08 10:20:29;;;;;;;0.00;0.00;;;;;;;21.62;67.85;99718.13;7372667;19;20049;-61
2022/09/08 10:23:25;;;;;;;0.00;0.00;;;;;;;21.63;67.89;99709.16;7375822;19;20025;-61
2022/09/08 10:26:29;;;;;;;0.00;0.00;;;;;;;21.67;68.20;99716.75;7271494;19;2004329;-61
2022/09/08 10:29:26;;;;;;;0.00;0.00;;;;;;;21.73;67.95;99720.69;7270568;19;2004394;-61
2022/09/08 10:32:06;;;;;;;0.10;0.10;;;;;;;21.78;67.46;99726.47;7273702;19;2004439;-61
2022/09/08 10:34:56;;;;;;;0.10;0.10;;;;;;;21.95;68.26;99720.56;7373826;19;20014;-61
2022/09/08 10:37:47;;;;;;;0.00;0.00;;;;;;;22.11;67.64;99719.28;7374100;19;20003;-61
2022/09/08 10:40:38;;;;;;;0.10;0.10;;;;;;;22.24;66.65;99720.72;7272740;19;2004649;-60
2022/09/08 10:43:22;;;;;;;0.00;0.00;;;;;;;22.32;65.68;99712.09;7273550;19;2004634;-61
2022/09/08 10:46:00;;;;;;;0.00;0.00;;;;;;;22.45;65.38;99726.00;7364689;19;20040;-61
2022/09/08 10:48:40;;;;;;;0.00;0.00;;;;;;;22.54;65.49;99717.19;7365428;19;20035;-61
2022/09/08 10:51:15;;;;;;;0.10;0.10;;;;;;;22.52;64.25;99724.50;7368662;19;20066;-61
2022/09/08 10:53:57;;;;;;;0.00;0.00;;;;;;;22.59;64.71;99718.63;7367201;19;20006;-61
2022/09/08 10:56:26;;;;;;;0.00;0.00;;;;;;;22.67;64.45;99726.78;7363473;19;20477;-61
2022/09/08 10:59:15;;;;;;;0.00;0.00;;;;;;;22.76;65.51;99731.28;7365196;19;20041;-60
2022/09/08 11:01:54;;;;;;;0.05;0.05;;;;;;;22.79;64.06;99726.50;7368255;19;20017;-61
2022/09/08 11:04:40;;;;;;;0.10;0.10;;;;;;;22.90;65.38;99725.59;7364912;19;20023;-61
2022/09/08 11:07:33;;;;;;;0.10;0.10;;;;;;;22.95;64.40;99720.69;7357917;19;20010;-61
2022/09/08 11:10:25;;;;;;;0.10;0.10;;;;;;;23.01;65.30;99720.16;7261596;19;2005057;-60
2022/09/08 11:12:50;;;;;;;0.10;0.10;;;;;;;23.01;62.87;99724.63;7262938;19;2004553;-60
2022/09/08 11:15:38;;;;;;;0.00;0.00;;;;;;;23.17;64.62;99724.09;7366225;19;20047;-61
2022/09/08 11:18:46;;;;;;;0.08;0.08;;;;;;;23.33;65.12;99732.38;7366922;19;20013;-60
2022/09/08 11:21:27;;;;;;;0.03;0.03;;;;;;;23.38;62.08;99724.81;7261292;19;2004050;-61
2022/09/08 11:24:01;;;;;;;0.10;0.10;;;;;;;23.47;63.36;99736.41;7365341;19;20016;-61
2022/09/08 11:26:43;;;;;;;0.10;0.10;;;;;;;23.47;63.03;99737.28;7366410;19;20013;-60
2022/09/08 11:29:13;;;;;;;0.00;0.00;;;;;;;23.54;62.46;99733.06;7364001;19;20010;-61
2022/09/08 11:32:16;;;;;;;0.10;0.10;;;;;;;23.55;63.34;99737.41;7366724;19;20017;-61
2022/09/08 11:35:19;;;;;;;0.03;0.03;;;;;;;23.52;63.57;99739.53;7265102;19;2004419;-61
2022/09/08 11:38:12;;;;;;;0.00;0.00;;;;;;;23.51;63.83;99741.31;7261478;19;2004673;-61
2022/09/08 11:41:11;;;;;;;0.00;0.00;;;;;;;23.62;62.27;99744.81;7261739;19;2004802;-61
2022/09/08 11:43:48;;;;;;;0.00;0.00;;;;;;;23.95;62.83;99744.41;7263443;19;2005932;-61
2022/09/08 11:46:40;;;;;;;0.00;0.00;;;;;;;24.23;63.23;99749.78;7366977;19;20019;-61
2022/09/08 11:49:38;;;;;;;0.10;0.10;;;;;;;24.33;61.52;99737.25;7260695;19;2004431;-61
2022/09/08 11:52:37;;;;;;;0.03;0.03;;;;;;;24.54;61.92;99753.94;7264177;19;2004123;-61
2022/09/08 11:55:26;;;;;;;0.10;0.10;;;;;;;24.59;60.92;99757.00;7262137;19;2004321;-61
2022/09/08 11:58:06;;;;;;;0.10;0.10;;;;;;;24.62;60.10;99753.16;7264703;19;2004532;-61
2022/09/08 12:00:54;;;;;;;0.00;0.00;;;;;;;24.61;60.42;99758.66;7365293;19;20013;-61
2022/09/08 12:03:42;;;;;;;0.00;0.00;;;;;;;24.55;59.75;99760.94;7365444;19;20010;-61
2022/09/08 12:06:34;;;;;;;0.00;0.00;;;;;;;24.48;59.60;99770.53;7364290;19;20010;-61
2022/09/08 12:09:45;;;;;;;0.00;0.00;;;;;;;24.39;59.82;99760.72;7262950;19;2004715;-61
2022/09/08 12:12:19;;;;;;;0.00;0.00;;;;;;;24.27;57.56;99768.03;7263950;19;2004532;-61